Time;durP1;ratioP1;P1;durP2;ratioP2;P2;SDS_P1;SDS_P2;PMS_P1;PMS_P2;Temp;Humidity;BMP_temperature;BMP_pressure;BME280_temperature;BME280_humidity;BME280_pressure;Samples;Min_cycle;Max_cycle;Signal;HPM_P1;HPM_P2
2022/03/16 00:00:08;;;;;;;0.00;0.00;;;;;;;;;;4933662;29;20052;-61
2022/03/16 00:02:33;;;;;;;0.00;0.00;;;;;;;;;;4930802;29;20028;-61
2022/03/16 00:04:58;;;;;;;0.35;0.35;;;;;;;;;;4931520;29;20027;-61
2022/03/16 00:07:23;;;;;;;0.00;0.00;;;;;;;;;;4931635;29;20027;-58
2022/03/16 00:09:49;;;;;;;0.00;0.00;;;;;;;;;;4929274;29;20023;-58
2022/03/16 00:12:15;;;;;;;0.00;0.00;;;;;;;;;;4928211;29;20019;-60
2022/03/16 00:14:40;;;;;;;0.00;0.00;;;;;;;;;;4931357;29;20103;-61
2022/03/16 00:17:06;;;;;;;5.65;3.05;;;;;;;;;;4935699;29;20132;-60
2022/03/16 00:19:32;;;;;;;1.95;0.98;;;;;;;;;;4938400;29;20023;-59
2022/03/16 00:21:58;;;;;;;0.52;0.52;;;;;;;;;;4933843;29;20020;-57
2022/03/16 00:24:23;;;;;;;0.75;0.75;;;;;;;;;;4931224;29;20118;-59
2022/03/16 00:26:48;;;;;;;1.30;1.30;;;;;;;;;;4928962;29;20031;-58
2022/03/16 00:29:13;;;;;;;0.17;0.17;;;;;;;;;;4930422;29;20469;-59
2022/03/16 00:31:38;;;;;;;0.00;0.00;;;;;;;;;;4934648;29;20030;-59
2022/03/16 00:34:04;;;;;;;0.50;0.50;;;;;;;;;;4929635;29;20098;-60
2022/03/16 00:36:29;;;;;;;0.00;0.00;;;;;;;;;;4937347;29;20031;-60
2022/03/16 00:38:54;;;;;;;2.17;2.15;;;;;;;;;;4932610;29;20015;-60
2022/03/16 00:41:19;;;;;;;0.98;0.98;;;;;;;;;;4929788;28;20429;-60
2022/03/16 00:43:45;;;;;;;0.47;0.38;;;;;;;;;;4934483;29;20032;-59
2022/03/16 00:46:10;;;;;;;0.75;0.45;;;;;;;;;;4936333;29;20083;-59
2022/03/16 00:48:35;;;;;;;0.00;0.00;;;;;;;;;;4932245;29;20537;-58
2022/03/16 00:51:01;;;;;;;0.00;0.00;;;;;;;;;;4914993;29;20686;-59
2022/03/16 00:53:26;;;;;;;0.95;0.95;;;;;;;;;;4932108;29;20373;-62
2022/03/16 00:55:51;;;;;;;0.43;0.43;;;;;;;;;;4928704;29;20359;-62
2022/03/16 00:58:17;;;;;;;0.10;0.10;;;;;;;;;;4931051;29;20682;-62
2022/03/16 01:00:42;;;;;;;0.00;0.00;;;;;;;;;;4930597;29;20047;-63
2022/03/16 01:03:07;;;;;;;0.00;0.00;;;;;;;;;;4929396;29;20035;-61
2022/03/16 01:05:32;;;;;;;0.00;0.00;;;;;;;;;;4934676;29;20023;-60
2022/03/16 01:07:57;;;;;;;0.00;0.00;;;;;;;;;;4932332;29;20059;-58
2022/03/16 01:10:23;;;;;;;0.00;0.00;;;;;;;;;;4930686;29;20043;-59
2022/03/16 01:12:48;;;;;;;0.90;0.80;;;;;;;;;;4930801;29;20035;-62
2022/03/16 01:15:13;;;;;;;0.03;0.03;;;;;;;;;;4930532;29;20042;-59
2022/03/16 01:17:38;;;;;;;0.00;0.00;;;;;;;;;;4930620;29;20417;-59
2022/03/16 01:20:04;;;;;;;1.45;1.25;;;;;;;;;;4928826;29;20473;-60
2022/03/16 01:22:29;;;;;;;0.70;0.70;;;;;;;;;;4930593;29;20514;-60
2022/03/16 01:24:54;;;;;;;0.70;0.70;;;;;;;;;;4930187;29;20074;-60
2022/03/16 01:27:20;;;;;;;0.70;0.30;;;;;;;;;;4931660;29;20042;-59
2022/03/16 01:29:45;;;;;;;0.00;0.00;;;;;;;;;;4934753;29;20054;-59
2022/03/16 01:32:10;;;;;;;0.00;0.00;;;;;;;;;;4929705;29;20571;-59
2022/03/16 01:34:35;;;;;;;0.15;0.15;;;;;;;;;;4934539;29;20164;-61
2022/03/16 01:37:01;;;;;;;0.52;0.52;;;;;;;;;;4933700;29;20115;-61
2022/03/16 01:39:27;;;;;;;0.00;0.00;;;;;;;;;;4931942;29;20087;-61
2022/03/16 01:41:52;;;;;;;0.52;0.52;;;;;;;;;;4930717;29;20059;-61
2022/03/16 01:44:17;;;;;;;0.13;0.13;;;;;;;;;;4914676;29;20087;-61
2022/03/16 01:46:42;;;;;;;2.55;2.08;;;;;;;;;;4931063;29;20106;-61
2022/03/16 01:49:08;;;;;;;1.77;1.67;;;;;;;;;;4928839;29;20082;-61
2022/03/16 01:51:34;;;;;;;0.43;0.43;;;;;;;;;;4930133;29;20032;-61
2022/03/16 01:53:59;;;;;;;0.47;0.47;;;;;;;;;;4937693;29;20035;-62
2022/03/16 01:56:24;;;;;;;0.15;0.15;;;;;;;;;;4935947;29;20377;-62
2022/03/16 01:58:49;;;;;;;0.20;0.20;;;;;;;;;;4935600;29;20028;-61
2022/03/16 02:01:15;;;;;;;3.70;3.40;;;;;;;;;;4931769;29;20067;-61
2022/03/16 02:03:40;;;;;;;6.90;2.22;;;;;;;;;;4941235;29;20022;-60
2022/03/16 02:06:07;;;;;;;2.45;2.35;;;;;;;;;;4937409;29;20401;-60
2022/03/16 02:08:33;;;;;;;1.27;1.27;;;;;;;;;;4935251;29;20050;-59
2022/03/16 02:10:59;;;;;;;2.55;2.40;;;;;;;;;;4934826;29;20458;-59
2022/03/16 02:13:25;;;;;;;2.70;2.50;;;;;;;;;;4938822;29;20035;-60
2022/03/16 02:15:50;;;;;;;0.20;0.20;;;;;;;;;;4935615;29;20450;-60
2022/03/16 02:18:15;;;;;;;0.60;0.60;;;;;;;;;;4936145;29;20063;-60
2022/03/16 02:20:41;;;;;;;1.25;1.00;;;;;;;;;;4923255;29;20078;-60
2022/03/16 02:23:07;;;;;;;0.20;0.20;;;;;;;;;;4943943;29;20043;-60
2022/03/16 02:25:33;;;;;;;2.50;0.90;;;;;;;;;;4938701;29;20023;-62
2022/03/16 02:27:58;;;;;;;0.93;0.55;;;;;;;;;;4933189;29;20039;-63
2022/03/16 02:30:24;;;;;;;1.33;1.33;;;;;;;;;;4932982;29;20042;-61
2022/03/16 02:32:50;;;;;;;0.52;0.52;;;;;;;;;;4934215;29;20078;-60
2022/03/16 02:35:16;;;;;;;0.00;0.00;;;;;;;;;;4935747;29;20102;-59
2022/03/16 02:37:41;;;;;;;0.00;0.00;;;;;;;;;;4932555;29;20548;-58
2022/03/16 02:40:07;;;;;;;0.20;0.20;;;;;;;;;;4933370;29;20593;-59
2022/03/16 02:42:32;;;;;;;0.00;0.00;;;;;;;;;;4934436;29;20465;-58
2022/03/16 02:44:58;;;;;;;0.00;0.00;;;;;;;;;;4934122;29;20106;-59
2022/03/16 02:47:24;;;;;;;0.00;0.00;;;;;;;;;;4932649;29;20389;-63
2022/03/16 02:49:49;;;;;;;0.00;0.00;;;;;;;;;;4933235;29;20027;-62
2022/03/16 02:52:15;;;;;;;1.02;1.02;;;;;;;;;;4935710;29;20030;-61
2022/03/16 02:54:40;;;;;;;0.10;0.10;;;;;;;;;;4938315;29;20106;-60
2022/03/16 02:57:05;;;;;;;1.10;1.10;;;;;;;;;;4933914;29;20027;-59
2022/03/16 02:59:30;;;;;;;0.00;0.00;;;;;;;;;;4932144;29;20020;-59
2022/03/16 03:01:56;;;;;;;1.45;0.47;;;;;;;;;;4940095;29;20091;-62
2022/03/16 03:04:21;;;;;;;1.45;1.45;;;;;;;;;;4930825;29;20505;-60
2022/03/16 03:06:46;;;;;;;0.20;0.20;;;;;;;;;;4935705;29;20599;-59
2022/03/16 03:09:12;;;;;;;0.00;0.00;;;;;;;;;;4932587;29;20027;-60
2022/03/16 03:11:37;;;;;;;0.75;0.75;;;;;;;;;;4935114;29;20088;-59
2022/03/16 03:14:02;;;;;;;0.00;0.00;;;;;;;;;;4936919;29;20488;-60
2022/03/16 03:16:27;;;;;;;0.32;0.32;;;;;;;;;;4930270;29;20080;-60
2022/03/16 03:18:52;;;;;;;0.63;0.60;;;;;;;;;;4931576;29;20039;-61
2022/03/16 03:21:18;;;;;;;0.20;0.20;;;;;;;;;;4932299;29;20051;-61
2022/03/16 03:23:43;;;;;;;0.00;0.00;;;;;;;;;;4929575;29;20040;-61
2022/03/16 03:26:08;;;;;;;0.00;0.00;;;;;;;;;;4932208;29;20047;-61
2022/03/16 03:28:33;;;;;;;0.00;0.00;;;;;;;;;;4931532;29;20016;-60
2022/03/16 03:30:59;;;;;;;0.00;0.00;;;;;;;;;;4931380;29;20407;-60
2022/03/16 03:33:24;;;;;;;0.00;0.00;;;;;;;;;;4929052;29;20074;-59
2022/03/16 03:35:49;;;;;;;0.00;0.00;;;;;;;;;;4934265;29;20020;-59
2022/03/16 03:38:16;;;;;;;0.00;0.00;;;;;;;;;;4946028;29;20480;-60
2022/03/16 03:40:41;;;;;;;0.00;0.00;;;;;;;;;;4936071;29;20015;-60
2022/03/16 03:43:06;;;;;;;0.00;0.00;;;;;;;;;;4939263;29;20500;-60
2022/03/16 03:45:31;;;;;;;0.00;0.00;;;;;;;;;;4935293;29;20034;-61
2022/03/16 03:47:57;;;;;;;0.00;0.00;;;;;;;;;;4931019;29;20469;-62
2022/03/16 03:50:22;;;;;;;0.00;0.00;;;;;;;;;;4937843;29;20498;-61
2022/03/16 03:52:47;;;;;;;0.25;0.25;;;;;;;;;;4935775;29;20434;-61
2022/03/16 03:55:12;;;;;;;1.38;1.38;;;;;;;;;;4932365;29;20097;-61
2022/03/16 03:57:38;;;;;;;0.00;0.00;;;;;;;;;;4935691;29;20027;-60
2022/03/16 04:00:04;;;;;;;0.00;0.00;;;;;;;;;;4938068;29;20038;-59
2022/03/16 04:02:29;;;;;;;1.10;1.10;;;;;;;;;;4935142;29;20039;-60
2022/03/16 04:04:54;;;;;;;0.05;0.05;;;;;;;;;;4930992;29;20028;-60
2022/03/16 04:07:19;;;;;;;0.00;0.00;;;;;;;;;;4932298;29;20035;-60
2022/03/16 04:09:46;;;;;;;0.00;0.00;;;;;;;;;;4937789;29;20085;-59
2022/03/16 04:12:11;;;;;;;2.72;2.65;;;;;;;;;;4934857;29;20115;-60
2022/03/16 04:14:37;;;;;;;0.00;0.00;;;;;;;;;;4930495;29;20183;-60
2022/03/16 04:17:02;;;;;;;0.68;0.68;;;;;;;;;;4933429;29;20031;-59
2022/03/16 04:19:27;;;;;;;0.25;0.25;;;;;;;;;;4938624;29;20110;-60
2022/03/16 04:21:53;;;;;;;0.00;0.00;;;;;;;;;;4929950;29;20027;-60
2022/03/16 04:24:18;;;;;;;0.00;0.00;;;;;;;;;;4933336;29;20094;-61
2022/03/16 04:26:43;;;;;;;0.20;0.20;;;;;;;;;;4931017;29;20020;-59
2022/03/16 04:29:08;;;;;;;0.00;0.00;;;;;;;;;;4931306;29;20434;-61
2022/03/16 04:31:33;;;;;;;0.00;0.00;;;;;;;;;;4936224;29;20020;-60
2022/03/16 04:33:59;;;;;;;0.30;0.30;;;;;;;;;;4931226;29;20075;-60
2022/03/16 04:36:24;;;;;;;0.00;0.00;;;;;;;;;;4937081;29;20042;-61
2022/03/16 04:38:50;;;;;;;0.00;0.00;;;;;;;;;;4933400;29;20038;-60
2022/03/16 04:41:15;;;;;;;1.15;1.05;;;;;;;;;;4931087;29;20020;-60
2022/03/16 04:43:40;;;;;;;0.25;0.25;;;;;;;;;;4931387;29;20027;-60
2022/03/16 04:46:06;;;;;;;0.00;0.00;;;;;;;;;;4918792;29;20616;-59
2022/03/16 04:48:31;;;;;;;0.00;0.00;;;;;;;;;;4934261;29;20436;-59
2022/03/16 04:50:56;;;;;;;0.00;0.00;;;;;;;;;;4928559;29;20035;-59
2022/03/16 04:53:22;;;;;;;0.32;0.32;;;;;;;;;;4934529;29;20499;-59
2022/03/16 04:55:47;;;;;;;0.00;0.00;;;;;;;;;;4929504;29;20087;-59
2022/03/16 04:58:12;;;;;;;0.00;0.00;;;;;;;;;;4927691;29;20078;-60
2022/03/16 05:00:40;;;;;;;0.45;0.45;;;;;;;;;;4929364;29;20036;-59
2022/03/16 05:03:05;;;;;;;0.00;0.00;;;;;;;;;;4929934;29;20026;-62
2022/03/16 05:05:31;;;;;;;0.15;0.15;;;;;;;;;;4930346;29;20462;-59
2022/03/16 05:07:59;;;;;;;0.45;0.45;;;;;;;;;;4931547;29;20039;-60
2022/03/16 05:10:24;;;;;;;1.55;1.35;;;;;;;;;;4930475;29;20051;-60
2022/03/16 05:12:50;;;;;;;0.20;0.20;;;;;;;;;;4930251;29;20103;-60
2022/03/16 05:15:19;;;;;;;0.10;0.10;;;;;;;;;;4929972;29;20026;-60
2022/03/16 05:17:44;;;;;;;0.00;0.00;;;;;;;;;;4928714;29;20393;-61
2022/03/16 05:20:10;;;;;;;0.00;0.00;;;;;;;;;;4935290;29;20103;-60
2022/03/16 05:22:45;;;;;;;0.20;0.20;;;;;;;;;;4934324;29;20050;-60
2022/03/16 05:25:15;;;;;;;1.27;1.27;;;;;;;;;;4926571;29;20524;-61
2022/03/16 05:27:40;;;;;;;;;;;;;;;;;;4931390;29;20413;-60
2022/03/16 05:30:06;;;;;;;0.00;0.00;;;;;;;;;;4930533;29;20439;-61
2022/03/16 05:32:31;;;;;;;0.75;0.75;;;;;;;;;;4932791;29;20263;-59
2022/03/16 05:34:57;;;;;;;0.00;0.00;;;;;;;;;;4929473;29;20110;-59
2022/03/16 05:37:22;;;;;;;0.77;0.75;;;;;;;;;;4929795;29;20027;-60
2022/03/16 05:39:47;;;;;;;0.30;0.30;;;;;;;;;;4930662;29;20050;-60
2022/03/16 05:42:15;;;;;;;0.10;0.10;;;;;;;;;;4928902;29;20030;-60
2022/03/16 05:44:40;;;;;;;0.93;0.93;;;;;;;;;;4933468;29;20020;-60
2022/03/16 05:47:06;;;;;;;0.22;0.22;;;;;;;;;;4932973;29;20035;-61
2022/03/16 05:49:31;;;;;;;0.00;0.00;;;;;;;;;;4928673;29;20028;-61
2022/03/16 05:51:56;;;;;;;2.40;2.30;;;;;;;;;;4928924;29;20377;-61
2022/03/16 05:54:21;;;;;;;1.88;0.47;;;;;;;;;;4927582;29;20034;-61
2022/03/16 05:56:47;;;;;;;1.35;1.27;;;;;;;;;;4931165;29;20032;-61
2022/03/16 05:59:12;;;;;;;3.50;2.13;;;;;;;;;;4930866;29;20541;-60
2022/03/16 06:01:37;;;;;;;0.10;0.10;;;;;;;;;;4930398;29;20034;-60
2022/03/16 06:04:03;;;;;;;0.00;0.00;;;;;;;;;;4927662;29;20504;-59
2022/03/16 06:06:29;;;;;;;16.45;2.55;;;;;;;;;;4929831;29;20086;-61
2022/03/16 06:08:55;;;;;;;0.20;0.20;;;;;;;;;;4931058;29;20027;-60
2022/03/16 06:11:20;;;;;;;1.50;0.68;;;;;;;;;;4928479;29;20024;-60
2022/03/16 06:13:45;;;;;;;1.33;1.23;;;;;;;;;;4930371;29;20037;-60
2022/03/16 06:16:11;;;;;;;1.75;1.65;;;;;;;;;;4932987;29;20073;-59
2022/03/16 06:18:36;;;;;;;0.13;0.13;;;;;;;;;;4931691;29;20130;-60
2022/03/16 06:21:01;;;;;;;0.00;0.00;;;;;;;;;;4929854;29;20372;-61
2022/03/16 06:23:26;;;;;;;0.00;0.00;;;;;;;;;;4928189;29;20052;-61
2022/03/16 06:25:52;;;;;;;0.00;0.00;;;;;;;;;;4930945;29;20024;-60
2022/03/16 06:28:17;;;;;;;0.65;0.65;;;;;;;;;;4931307;29;20098;-61
2022/03/16 06:30:42;;;;;;;0.32;0.32;;;;;;;;;;4933089;29;20414;-62
2022/03/16 06:33:07;;;;;;;0.00;0.00;;;;;;;;;;4932611;29;20032;-62
2022/03/16 06:35:33;;;;;;;0.00;0.00;;;;;;;;;;4932512;29;20031;-61
2022/03/16 06:37:58;;;;;;;0.00;0.00;;;;;;;;;;4935353;29;20031;-61
2022/03/16 06:40:23;;;;;;;0.47;0.47;;;;;;;;;;4932264;29;20397;-61
2022/03/16 06:42:50;;;;;;;0.00;0.00;;;;;;;;;;4934322;29;20377;-60
2022/03/16 06:45:16;;;;;;;0.20;0.20;;;;;;;;;;4940083;29;20024;-59
2022/03/16 06:47:42;;;;;;;0.45;0.43;;;;;;;;;;4931035;29;20617;-59
2022/03/16 06:50:07;;;;;;;0.20;0.20;;;;;;;;;;4931338;29;20138;-60
2022/03/16 06:52:32;;;;;;;0.00;0.00;;;;;;;;;;4930515;29;20031;-60
2022/03/16 06:54:58;;;;;;;0.00;0.00;;;;;;;;;;4933890;29;20028;-60
2022/03/16 06:57:23;;;;;;;2.90;1.65;;;;;;;;;;4935193;29;20032;-60
2022/03/16 06:59:48;;;;;;;2.17;2.08;;;;;;;;;;4932409;29;20028;-59
2022/03/16 07:02:13;;;;;;;0.00;0.00;;;;;;;;;;4936729;29;20016;-59
2022/03/16 07:04:39;;;;;;;2.47;2.35;;;;;;;;;;4930486;29;20411;-60
2022/03/16 07:07:04;;;;;;;0.00;0.00;;;;;;;;;;4932323;29;20031;-60
2022/03/16 07:09:32;;;;;;;0.20;0.20;;;;;;;;;;4931501;29;20704;-61
2022/03/16 07:11:57;;;;;;;0.40;0.40;;;;;;;;;;4913010;29;20031;-60
2022/03/16 07:14:31;;;;;;;0.70;0.70;;;;;;;;;;4931590;29;20039;-61
2022/03/16 07:16:57;;;;;;;0.43;0.08;;;;;;;;;;4932973;29;20481;-59
2022/03/16 07:19:23;;;;;;;5.97;1.05;;;;;;;;;;4941764;29;20038;-60
2022/03/16 07:21:48;;;;;;;0.00;0.00;;;;;;;;;;4935264;29;20126;-59
2022/03/16 07:24:13;;;;;;;0.00;0.00;;;;;;;;;;4930710;29;20608;-60
2022/03/16 07:26:39;;;;;;;2.92;2.60;;;;;;;;;;4933192;29;20027;-63
2022/03/16 07:29:04;;;;;;;1.23;1.13;;;;;;;;;;4931800;29;20381;-61
2022/03/16 07:31:29;;;;;;;0.52;0.52;;;;;;;;;;4936082;29;20031;-64
2022/03/16 07:33:55;;;;;;;0.00;0.00;;;;;;;;;;4931116;29;20613;-62
2022/03/16 07:36:20;;;;;;;0.30;0.30;;;;;;;;;;4930249;29;20048;-60
2022/03/16 07:38:46;;;;;;;0.00;0.00;;;;;;;;;;4929132;29;20028;-61
2022/03/16 07:41:11;;;;;;;0.00;0.00;;;;;;;;;;4915633;29;20028;-62
2022/03/16 07:43:36;;;;;;;4.40;3.58;;;;;;;;;;4935566;29;20056;-62
2022/03/16 07:46:03;;;;;;;1.45;0.45;;;;;;;;;;4930160;29;20032;-64
2022/03/16 07:48:28;;;;;;;0.28;0.28;;;;;;;;;;4936854;29;20103;-61
2022/03/16 07:50:53;;;;;;;3.50;0.60;;;;;;;;;;4928932;29;20126;-61
2022/03/16 07:53:18;;;;;;;0.05;0.05;;;;;;;;;;4930972;29;20469;-62
2022/03/16 07:55:45;;;;;;;0.00;0.00;;;;;;;;;;4931298;29;20039;-62
2022/03/16 07:58:11;;;;;;;0.98;0.98;;;;;;;;;;4934794;29;20036;-61
2022/03/16 08:00:36;;;;;;;0.20;0.20;;;;;;;;;;4933456;29;20023;-59
2022/03/16 08:03:02;;;;;;;0.20;0.20;;;;;;;;;;4928726;29;20028;-60
2022/03/16 08:05:28;;;;;;;0.00;0.00;;;;;;;;;;4931720;29;20054;-59
2022/03/16 08:07:53;;;;;;;0.95;0.95;;;;;;;;;;4932717;29;20059;-61
2022/03/16 08:10:19;;;;;;;0.28;0.28;;;;;;;;;;4936504;29;20086;-60
2022/03/16 08:12:44;;;;;;;0.90;0.90;;;;;;;;;;4936403;29;20106;-62
2022/03/16 08:15:10;;;;;;;0.57;0.15;;;;;;;;;;4929238;29;20524;-60
2022/03/16 08:17:35;;;;;;;4.20;0.95;;;;;;;;;;4929534;29;20024;-60
2022/03/16 08:20:01;;;;;;;0.13;0.08;;;;;;;;;;4929942;29;20043;-61
2022/03/16 08:22:26;;;;;;;0.00;0.00;;;;;;;;;;4930345;29;20114;-63
2022/03/16 08:24:52;;;;;;;0.00;0.00;;;;;;;;;;4937543;29;20031;-61
2022/03/16 08:27:17;;;;;;;0.88;0.82;;;;;;;;;;4931709;29;20035;-62
2022/03/16 08:29:42;;;;;;;1.75;1.75;;;;;;;;;;4938711;29;20027;-59
2022/03/16 08:32:08;;;;;;;1.88;1.25;;;;;;;;;;4932101;29;20032;-61
2022/03/16 08:34:33;;;;;;;1.15;1.15;;;;;;;;;;4933952;29;20023;-60
2022/03/16 08:37:00;;;;;;;0.00;0.00;;;;;;;;;;4935448;29;20027;-61
2022/03/16 08:39:26;;;;;;;1.45;1.40;;;;;;;;;;4930179;29;20077;-62
2022/03/16 08:41:51;;;;;;;0.00;0.00;;;;;;;;;;4930995;29;20422;-61
2022/03/16 08:44:17;;;;;;;0.00;0.00;;;;;;;;;;4936408;29;20665;-60
2022/03/16 08:46:42;;;;;;;0.05;0.05;;;;;;;;;;4929990;29;20085;-60
2022/03/16 08:49:07;;;;;;;0.80;0.57;;;;;;;;;;4931428;29;20114;-60
2022/03/16 08:51:33;;;;;;;4.60;4.50;;;;;;;;;;4931005;29;20027;-60
2022/03/16 08:53:58;;;;;;;0.00;0.00;;;;;;;;;;4930731;29;20023;-60
2022/03/16 08:56:23;;;;;;;0.45;0.45;;;;;;;;;;4930813;29;20034;-61
2022/03/16 08:58:48;;;;;;;0.00;0.00;;;;;;;;;;4930959;29;20023;-61
2022/03/16 09:01:14;;;;;;;0.00;0.00;;;;;;;;;;4932410;29;20034;-60
2022/03/16 09:03:39;;;;;;;0.00;0.00;;;;;;;;;;4935257;29;20015;-60
2022/03/16 09:06:04;;;;;;;0.00;0.00;;;;;;;;;;4928481;29;20047;-61
2022/03/16 09:08:31;;;;;;;0.13;0.13;;;;;;;;;;4931625;29;20024;-60
2022/03/16 09:10:57;;;;;;;0.00;0.00;;;;;;;;;;4939404;29;20024;-59
2022/03/16 09:13:22;;;;;;;0.00;0.00;;;;;;;;;;4934355;29;20027;-60
2022/03/16 09:15:49;;;;;;;0.00;0.00;;;;;;;;;;4933898;29;20044;-61
2022/03/16 09:18:14;;;;;;;0.00;0.00;;;;;;;;;;4930516;29;20492;-61
2022/03/16 09:20:39;;;;;;;0.00;0.00;;;;;;;;;;4935006;29;20110;-61
2022/03/16 09:23:05;;;;;;;3.03;0.32;;;;;;;;;;4940087;29;20040;-61
2022/03/16 09:25:30;;;;;;;0.00;0.00;;;;;;;;;;4933932;29;20027;-61
2022/03/16 09:27:55;;;;;;;0.00;0.00;;;;;;;;;;4938853;29;20103;-61
2022/03/16 09:30:22;;;;;;;0.20;0.20;;;;;;;;;;4929218;29;20567;-61
2022/03/16 09:32:47;;;;;;;0.35;0.35;;;;;;;;;;4932249;29;20078;-62
2022/03/16 09:35:12;;;;;;;3.55;3.25;;;;;;;;;;4929501;29;20067;-61
2022/03/16 09:37:38;;;;;;;0.43;0.43;;;;;;;;;;4931698;29;20115;-61
2022/03/16 09:40:04;;;;;;;0.20;0.20;;;;;;;;;;4939559;29;20051;-61
2022/03/16 09:42:30;;;;;;;0.00;0.00;;;;;;;;;;4931236;29;20031;-61
2022/03/16 09:44:59;;;;;;;0.25;0.25;;;;;;;;;;4934303;29;20080;-61
2022/03/16 09:47:24;;;;;;;0.00;0.00;;;;;;;;;;4927931;29;20078;-61
2022/03/16 09:49:51;;;;;;;0.00;0.00;;;;;;;;;;4929462;29;20059;-61
2022/03/16 09:52:16;;;;;;;0.00;0.00;;;;;;;;;;4926228;29;20079;-61
2022/03/16 09:54:41;;;;;;;0.00;0.00;;;;;;;;;;4934228;29;20043;-61
2022/03/16 09:57:06;;;;;;;1.35;1.35;;;;;;;;;;4929053;29;20450;-62
2022/03/16 09:59:32;;;;;;;0.00;0.00;;;;;;;;;;4929470;29;20050;-61
2022/03/16 10:02:09;;;;;;;0.00;0.00;;;;;;;;;;4930318;29;20023;-61
2022/03/16 10:04:36;;;;;;;0.00;0.00;;;;;;;;;;4915099;29;20023;-61
2022/03/16 10:07:02;;;;;;;0.00;0.00;;;;;;;;;;4933869;29;20370;-61
2022/03/16 10:15:03;;;;;;;1.00;1.00;;;;;;;;;;4934636;29;20141;-60
2022/03/16 10:17:43;;;;;;;2.00;1.17;;;;;;;;;;4934217;29;20517;-60
2022/03/16 10:20:09;;;;;;;0.65;0.32;;;;;;;;;;4922770;29;20027;-60
2022/03/16 10:22:38;;;;;;;1.35;1.30;;;;;;;;;;4931521;29;20501;-60
2022/03/16 10:25:04;;;;;;;0.00;0.00;;;;;;;;;;4933826;29;20028;-60
2022/03/16 10:27:30;;;;;;;0.28;0.28;;;;;;;;;;4934751;29;20485;-61
2022/03/16 10:29:55;;;;;;;0.00;0.00;;;;;;;;;;4937929;29;20016;-60
2022/03/16 10:32:24;;;;;;;0.00;0.00;;;;;;;;;;4935087;29;20028;-61
2022/03/16 10:34:53;;;;;;;0.90;0.28;;;;;;;;;;4932158;29;20039;-61
2022/03/16 10:37:20;;;;;;;0.22;0.22;;;;;;;;;;4915479;29;20031;-61
2022/03/16 10:39:46;;;;;;;0.20;0.10;;;;;;;;;;4932463;29;20024;-62
2022/03/16 10:48:01;;;;;;;0.00;0.00;;;;;;;;;;4935763;29;20035;-61
2022/03/16 10:50:26;;;;;;;0.00;0.00;;;;;;;;;;4932492;29;20032;-61
2022/03/16 10:52:52;;;;;;;1.00;0.75;;;;;;;;;;4932800;29;20044;-61
2022/03/16 10:55:19;;;;;;;0.47;0.47;;;;;;;;;;4933546;29;20050;-61
2022/03/16 10:57:46;;;;;;;0.77;0.60;;;;;;;;;;4932270;29;20070;-60
2022/03/16 11:00:12;;;;;;;1.88;1.75;;;;;;;;;;4930574;29;20109;-62
2022/03/16 11:02:40;;;;;;;1.42;1.42;;;;;;;;;;4934121;29;20028;-60
2022/03/16 11:05:06;;;;;;;0.00;0.00;;;;;;;;;;4930641;29;20019;-61
2022/03/16 11:07:31;;;;;;;0.10;0.10;;;;;;;;;;4932577;29;20028;-61
2022/03/16 11:09:57;;;;;;;0.00;0.00;;;;;;;;;;4931555;29;20461;-61
2022/03/16 11:15:07;;;;;;;0.00;0.00;;;;;;;;;;4935288;29;20042;-59
2022/03/16 11:17:32;;;;;;;1.45;1.45;;;;;;;;;;4935085;29;20028;-60
2022/03/16 11:19:59;;;;;;;1.88;1.77;;;;;;;;;;4932013;29;20039;-61
2022/03/16 11:22:25;;;;;;;0.75;0.75;;;;;;;;;;4931207;29;20035;-59
2022/03/16 11:25:00;;;;;;;2.28;2.17;;;;;;;;;;4933175;29;20103;-62
2022/03/16 11:27:31;;;;;;;1.92;1.63;;;;;;;;;;4931950;29;20457;-62
2022/03/16 11:29:59;;;;;;;0.05;0.05;;;;;;;;;;4934310;29;20036;-61
2022/03/16 11:32:32;;;;;;;3.35;3.08;;;;;;;;;;4936161;29;20024;-60
2022/03/16 11:34:59;;;;;;;1.17;1.15;;;;;;;;;;4939606;29;20027;-61
2022/03/16 11:37:34;;;;;;;7.25;4.55;;;;;;;;;;4928527;29;20035;-60
2022/03/16 11:40:05;;;;;;;4.45;4.05;;;;;;;;;;4929598;29;20381;-61
2022/03/16 11:42:31;;;;;;;3.85;3.50;;;;;;;;;;4931271;29;20385;-61
2022/03/16 11:45:19;;;;;;;3.65;3.30;;;;;;;;;;4937157;29;20023;-63
2022/03/16 11:47:46;;;;;;;1.63;1.40;;;;;;;;;;4932669;29;20521;-62
2022/03/16 11:50:13;;;;;;;4.32;3.13;;;;;;;;;;4929972;29;20028;-61
2022/03/16 11:53:03;;;;;;;2.05;1.60;;;;;;;;;;4933353;29;20027;-62
2022/03/16 11:55:28;;;;;;;;;;;;;;;;;;4921953;29;20042;-61
2022/03/16 11:57:54;;;;;;;1.40;0.60;;;;;;;;;;4936536;29;19926;-61
2022/03/16 12:00:21;;;;;;;3.40;3.00;;;;;;;;;;4932443;29;20055;-62
2022/03/16 12:02:57;;;;;;;5.28;3.53;;;;;;;;;;4931122;29;20067;-61
2022/03/16 12:05:26;;;;;;;1.17;1.17;;;;;;;;;;4934475;29;20020;-61
2022/03/16 12:08:10;;;;;;;2.47;2.37;;;;;;;;;;4929788;29;20035;-62
2022/03/16 12:10:45;;;;;;;2.78;2.60;;;;;;;;;;4929567;29;20094;-61
2022/03/16 12:13:10;;;;;;;1.35;1.27;;;;;;;;;;4913462;29;20024;-61
2022/03/16 12:15:37;;;;;;;1.55;1.55;;;;;;;;;;4928861;29;20413;-61
2022/03/16 12:18:07;;;;;;;3.05;2.88;;;;;;;;;;4934355;29;20452;-61
2022/03/16 12:20:32;;;;;;;;;;;;;;;;;;4933307;29;20031;-64
2022/03/16 12:22:58;;;;;;;2.47;2.38;;;;;;;;;;4931471;29;20509;-63
2022/03/16 12:25:26;;;;;;;10.82;3.30;;;;;;;;;;4929653;29;20086;-64
2022/03/16 12:30:47;;;;;;;1.73;1.30;;;;;;;;;;4937046;29;20069;-63
2022/03/16 12:33:16;;;;;;;2.88;2.67;;;;;;;;;;4928820;29;20027;-63
2022/03/16 12:35:42;;;;;;;1.15;1.15;;;;;;;;;;4928629;29;20099;-63
2022/03/16 12:38:11;;;;;;;0.52;0.52;;;;;;;;;;4931163;29;20032;-63
2022/03/16 12:42:30;;;;;;;0.00;0.00;;;;;;;;;;4941419;29;20110;-63
2022/03/16 12:43:22;;;;;;;1.20;1.05;;;;;;;;;;4928563;29;20035;-63
2022/03/16 12:45:48;;;;;;;0.52;0.52;;;;;;;;;;4930217;29;20631;-62
2022/03/16 12:48:14;;;;;;;1.00;1.00;;;;;;;;;;4938221;29;20043;-63
2022/03/16 12:50:44;;;;;;;0.00;0.00;;;;;;;;;;4933857;29;20035;-63
2022/03/16 12:53:09;;;;;;;;;;;;;;;;;;4934006;29;20035;-63
2022/03/16 12:55:34;;;;;;;0.00;0.00;;;;;;;;;;4928092;29;19922;-63
2022/03/16 12:58:00;;;;;;;1.52;1.40;;;;;;;;;;4930570;29;20020;-63
2022/03/16 13:00:31;;;;;;;1.45;1.45;;;;;;;;;;4932040;29;20063;-63
2022/03/16 13:03:12;;;;;;;2.60;2.45;;;;;;;;;;4940839;29;20037;-63
2022/03/16 13:05:38;;;;;;;3.90;3.58;;;;;;;;;;4934128;29;20075;-63
2022/03/16 13:08:04;;;;;;;0.65;0.65;;;;;;;;;;4929668;29;20039;-63
2022/03/16 13:10:30;;;;;;;2.35;2.17;;;;;;;;;;4931301;29;20107;-63
2022/03/16 13:13:19;;;;;;;0.00;0.00;;;;;;;;;;4931444;29;20039;-63
2022/03/16 13:15:44;;;;;;;;;;;;;;;;;;4934242;29;20031;-61
2022/03/16 13:18:10;;;;;;;3.75;3.00;;;;;;;;;;4929066;29;19918;-65
2022/03/16 13:20:35;;;;;;;6.03;4.10;;;;;;;;;;4936075;29;20043;-64
2022/03/16 13:23:04;;;;;;;5.07;3.92;;;;;;;;;;4936536;29;20079;-66
2022/03/16 13:25:29;;;;;;;2.08;1.90;;;;;;;;;;4934319;29;20028;-65
2022/03/16 13:27:54;;;;;;;1.77;1.67;;;;;;;;;;4935640;29;20409;-66
2022/03/16 13:30:22;;;;;;;1.85;1.80;;;;;;;;;;4926968;29;20032;-64
2022/03/16 13:32:51;;;;;;;3.90;3.55;;;;;;;;;;4929260;29;20134;-64
2022/03/16 13:35:28;;;;;;;1.17;1.13;;;;;;;;;;4932558;29;20078;-64
2022/03/16 13:37:59;;;;;;;0.10;0.10;;;;;;;;;;4930223;29;20302;-66
2022/03/16 13:40:25;;;;;;;1.40;1.38;;;;;;;;;;4931990;29;20044;-64
2022/03/16 13:42:59;;;;;;;11.10;4.13;;;;;;;;;;4930374;29;20039;-65
2022/03/16 13:45:26;;;;;;;7.13;2.40;;;;;;;;;;4932895;29;20047;-69
2022/03/16 13:48:13;;;;;;;3.22;2.97;;;;;;;;;;4929125;29;20030;-66
2022/03/16 13:50:43;;;;;;;1.23;1.15;;;;;;;;;;4935169;29;20593;-67
2022/03/16 13:53:12;;;;;;;0.00;0.00;;;;;;;;;;4931113;29;20023;-66
2022/03/16 13:55:38;;;;;;;4.35;3.28;;;;;;;;;;4934229;29;20054;-63
2022/03/16 13:58:11;;;;;;;0.47;0.47;;;;;;;;;;4933134;29;20028;-63
2022/03/16 14:00:48;;;;;;;1.90;1.80;;;;;;;;;;4933100;29;20028;-63
2022/03/16 14:03:14;;;;;;;2.17;1.58;;;;;;;;;;4933078;29;20462;-65
2022/03/16 14:05:40;;;;;;;2.35;2.28;;;;;;;;;;4932886;29;20062;-66
2022/03/16 14:08:09;;;;;;;0.70;0.65;;;;;;;;;;4938581;29;20026;-64
2022/03/16 14:10:35;;;;;;;0.22;0.22;;;;;;;;;;4931569;29;20366;-65
2022/03/16 14:13:04;;;;;;;1.02;1.02;;;;;;;;;;4939145;29;20035;-67
2022/03/16 14:15:29;;;;;;;0.05;0.05;;;;;;;;;;4931939;29;20382;-63
2022/03/16 14:17:58;;;;;;;2.88;2.65;;;;;;;;;;4932238;29;20129;-65
2022/03/16 14:20:26;;;;;;;1.73;1.63;;;;;;;;;;4932059;29;20114;-64
2022/03/16 14:22:52;;;;;;;5.15;3.97;;;;;;;;;;4931272;29;20047;-64
2022/03/16 14:25:23;;;;;;;0.20;0.20;;;;;;;;;;4933734;29;20086;-64
2022/03/16 14:27:49;;;;;;;5.75;4.22;;;;;;;;;;4914235;29;20035;-63
2022/03/16 14:30:17;;;;;;;0.80;0.80;;;;;;;;;;4939635;29;20186;-65
2022/03/16 14:32:42;;;;;;;2.70;2.35;;;;;;;;;;4932620;29;20482;-66
2022/03/16 14:35:08;;;;;;;0.43;0.43;;;;;;;;;;4933742;29;20038;-64
2022/03/16 14:37:34;;;;;;;3.95;2.85;;;;;;;;;;4918511;29;20023;-65
2022/03/16 14:39:59;;;;;;;10.90;3.95;;;;;;;;;;4932288;29;20026;-63
2022/03/16 14:42:25;;;;;;;3.00;1.42;;;;;;;;;;4939072;29;20019;-64
2022/03/16 14:44:50;;;;;;;4.05;3.00;;;;;;;;;;4931912;29;20035;-63
2022/03/16 14:47:16;;;;;;;4.10;3.60;;;;;;;;;;4933697;29;20158;-63
2022/03/16 14:49:41;;;;;;;1.77;1.08;;;;;;;;;;4936958;29;20486;-63
2022/03/16 14:52:08;;;;;;;1.95;1.85;;;;;;;;;;4937038;29;20241;-65
2022/03/16 14:54:33;;;;;;;2.42;2.22;;;;;;;;;;4933959;29;20038;-63
2022/03/16 14:57:00;;;;;;;2.72;2.55;;;;;;;;;;4930958;29;20493;-65